Time;durP1;ratioP1;P1;durP2;ratioP2;P2;SDS_P1;SDS_P2;PMS_P1;PMS_P2;Temp;Humidity;BMP_temperature;BMP_pressure;BME280_temperature;BME280_humidity;BME280_pressure;Samples;Min_cycle;Max_cycle;Signal;HPM_P1;HPM_P2
2022/08/06 00:00:25;;;;;;;3.98;3.67;;;;;;;22.92;85.29;100764.33;5328488;54;1139179;-63
2022/08/06 00:05:33;;;;;;;14.00;4.28;;;;;;;22.85;86.83;100768.01;5330398;55;1139220;-67
2022/08/06 00:10:39;;;;;;;5.92;3.80;;;;;;;22.59;88.34;100781.52;5423209;54;1141082;-64
2022/08/06 00:15:45;;;;;;;3.47;3.17;;;;;;;22.31;89.19;100776.50;5245830;56;1139390;-64
2022/08/06 00:20:51;;;;;;;2.60;2.37;;;;;;;22.12;90.65;100791.42;5422924;54;1139462;-67
2022/08/06 00:25:57;;;;;;;5.70;3.02;;;;;;;21.84;91.20;100799.80;5251029;55;1139355;-63
2022/08/06 00:31:05;;;;;;;3.08;2.87;;;;;;;21.62;91.00;100813.14;5396197;54;1139209;-66
2022/08/06 00:36:11;;;;;;;3.60;2.65;;;;;;;21.51;91.31;100823.02;5323244;55;1138451;-65
2022/08/06 00:41:18;;;;;;;3.42;3.12;;;;;;;21.54;90.71;100805.12;5318268;54;1138904;-66
2022/08/06 00:46:25;;;;;;;2.77;2.58;;;;;;;21.52;90.12;100817.96;5314629;55;1138989;-66
2022/08/06 00:51:30;;;;;;;5.65;2.55;;;;;;;21.47;90.01;100837.02;5310148;55;1139370;-67
2022/08/06 00:56:36;;;;;;;5.62;4.10;;;;;;;21.47;90.27;100846.43;5307247;55;1139414;-68
2022/08/06 01:01:42;;;;;;;2.02;1.87;;;;;;;21.39;90.08;100853.54;5310493;55;1138990;-68
2022/08/06 01:06:48;;;;;;;4.92;2.77;;;;;;;21.19;91.94;100850.16;5315529;54;1139262;-65
2022/08/06 01:11:54;;;;;;;2.22;1.80;;;;;;;21.08;91.35;100844.70;5327809;55;1139058;-67
2022/08/06 01:17:04;;;;;;;1.90;1.80;;;;;;;21.12;91.41;100868.02;5310562;55;1139248;-69
2022/08/06 01:22:20;;;;;;;1.80;1.35;;;;;;;21.05;90.79;100876.83;5371700;54;1138848;-64
2022/08/06 01:27:53;;;;;;;4.12;1.70;;;;;;;20.87;89.59;100874.91;5381751;54;1139302;-64
2022/08/06 01:33:12;;;;;;;6.27;1.47;;;;;;;20.64;88.43;100880.23;5379155;54;1139320;-65
2022/08/06 01:38:24;;;;;;;2.40;1.55;;;;;;;20.52;88.25;100899.61;5159417;57;1139022;-66
2022/08/06 01:43:33;;;;;;;4.15;1.67;;;;;;;20.45;88.66;100897.30;5330148;55;1139041;-69
2022/08/06 01:48:41;;;;;;;2.45;1.50;;;;;;;20.33;88.04;100893.59;5163981;57;1139200;-64
2022/08/06 01:53:48;;;;;;;2.27;1.15;;;;;;;20.34;87.97;100909.20;5294541;55;1137074;-63
2022/08/06 01:58:55;;;;;;;9.95;1.32;;;;;;;20.36;87.82;100921.50;5163839;56;1137504;-65
2022/08/06 02:04:04;;;;;;;4.58;1.45;;;;;;;20.41;86.95;100942.98;5326778;55;1136901;-67
2022/08/06 02:09:16;;;;;;;3.65;2.10;;;;;;;20.29;85.25;100938.45;5157591;57;1136883;-68
2022/08/06 02:14:25;;;;;;;2.55;1.62;;;;;;;20.30;84.70;100940.98;5330429;55;1137052;-63
2022/08/06 02:19:32;;;;;;;5.83;1.82;;;;;;;20.26;84.32;100916.80;5159343;57;1137357;-62
2022/08/06 02:24:40;;;;;;;2.40;1.30;;;;;;;20.34;84.66;100916.77;5325956;55;1137033;-61
2022/08/06 02:29:47;;;;;;;3.52;1.05;;;;;;;20.35;83.87;100917.60;5199332;56;1137121;-65
2022/08/06 02:34:53;;;;;;;4.05;1.40;;;;;;;20.27;84.03;100917.64;5329136;55;1137278;-62
2022/08/06 02:40:04;;;;;;;5.17;1.32;;;;;;;20.09;83.67;100928.59;5250357;55;1136963;-64
2022/08/06 02:45:17;;;;;;;6.58;1.20;;;;;;;19.87;83.59;100928.77;5330499;55;1137082;-66
2022/08/06 02:50:35;;;;;;;2.45;1.45;;;;;;;19.81;83.64;100937.52;5249686;55;1136900;-64
2022/08/06 02:55:44;;;;;;;4.35;1.22;;;;;;;19.82;83.62;100941.88;5330852;55;1138923;-61
2022/08/06 03:00:54;;;;;;;4.72;1.40;;;;;;;19.80;83.32;100957.81;5250771;55;1138956;-64
2022/08/06 03:06:03;;;;;;;5.67;1.63;;;;;;;19.74;83.33;100962.00;5250753;55;1138966;-65
2022/08/06 03:11:11;;;;;;;2.33;0.80;;;;;;;19.63;83.84;100987.33;5264002;55;1139068;-63
2022/08/06 03:16:19;;;;;;;6.37;1.40;;;;;;;19.47;84.71;100992.64;5389813;55;1139070;-63
2022/08/06 03:21:28;;;;;;;2.98;1.20;;;;;;;19.35;84.66;100983.73;5229336;56;1139063;-62
2022/08/06 03:26:34;;;;;;;1.12;1.00;;;;;;;19.27;84.77;100988.56;5389753;55;1139023;-65
2022/08/06 03:31:41;;;;;;;1.62;0.85;;;;;;;19.27;84.63;100992.08;5413931;54;1139074;-63
2022/08/06 03:36:49;;;;;;;2.08;0.90;;;;;;;19.22;84.60;100998.95;5220193;56;1139264;-67
2022/08/06 03:41:55;;;;;;;0.98;0.72;;;;;;;19.24;84.72;101031.33;5227091;56;1139146;-64
2022/08/06 03:47:08;;;;;;;3.55;1.27;;;;;;;19.18;84.42;101039.16;5222605;56;1139090;-62
2022/08/06 03:52:16;;;;;;;;;;;;;;;19.09;84.12;101045.00;5223352;56;1139025;-61
2022/08/06 03:57:25;;;;;;;2.67;0.90;;;;;;;19.03;84.22;101049.66;5169941;56;976224;-63
2022/08/06 04:02:41;;;;;;;2.42;1.30;;;;;;;18.95;84.29;101065.69;5261675;55;1136954;-65
2022/08/06 04:07:50;;;;;;;4.33;1.00;;;;;;;18.95;84.29;101077.75;5216179;56;1139052;-63
2022/08/06 04:12:57;;;;;;;3.33;1.00;;;;;;;18.95;84.35;101096.02;5260293;55;1138974;-64
2022/08/06 04:18:05;;;;;;;1.05;1.00;;;;;;;18.96;84.03;101098.20;5166410;56;1138973;-63
2022/08/06 04:23:12;;;;;;;2.75;1.00;;;;;;;18.87;84.44;101098.66;5226703;56;1139008;-63
2022/08/06 04:28:20;;;;;;;3.25;1.15;;;;;;;18.84;84.28;101105.67;5192800;56;1139236;-64
2022/08/06 04:33:27;;;;;;;4.85;0.88;;;;;;;18.79;84.06;101114.68;5232387;56;1139047;-64
2022/08/06 04:38:34;;;;;;;1.20;1.10;;;;;;;18.71;84.10;101122.68;5189874;56;1138983;-63
2022/08/06 04:43:41;;;;;;;2.62;0.85;;;;;;;18.82;84.07;101136.31;5213639;56;1139026;-61
2022/08/06 04:48:48;;;;;;;1.90;0.90;;;;;;;18.80;83.62;101140.48;5229986;55;1139136;-64
2022/08/06 04:53:54;;;;;;;2.95;0.55;;;;;;;18.84;83.42;101147.22;5225080;55;1138983;-64
2022/08/06 04:59:00;;;;;;;0.85;0.70;;;;;;;18.79;82.74;101151.39;5227673;56;1139070;-65
2022/08/06 05:04:06;;;;;;;0.95;0.53;;;;;;;18.69;82.76;101166.20;5227489;56;1139024;-62
2022/08/06 05:09:22;;;;;;;2.10;0.88;;;;;;;18.63;82.97;101172.20;5316554;55;1139078;-64
2022/08/06 05:14:41;;;;;;;1.27;0.50;;;;;;;18.61;83.21;101187.59;5212335;56;1136958;-62
2022/08/06 05:19:57;;;;;;;1.70;0.80;;;;;;;18.63;83.32;101184.26;5208026;56;1137066;-66
2022/08/06 05:25:05;;;;;;;2.15;0.80;;;;;;;18.64;82.91;101181.89;5175890;56;1136947;-66
2022/08/06 05:30:12;;;;;;;3.70;1.00;;;;;;;18.61;83.74;101199.15;5181452;56;1137251;-64
2022/08/06 05:35:18;;;;;;;0.78;0.70;;;;;;;18.56;84.35;101197.39;5172870;56;1136867;-66
2022/08/06 05:40:24;;;;;;;0.68;0.62;;;;;;;18.54;85.03;101191.34;5166673;56;1136881;-68
2022/08/06 05:45:29;;;;;;;2.80;0.90;;;;;;;18.41;84.56;101200.76;5159437;56;1136953;-66
2022/08/06 05:50:40;;;;;;;3.37;0.90;;;;;;;18.34;85.31;101195.66;5226473;55;1136929;-64
2022/08/06 05:55:56;;;;;;;3.87;1.30;;;;;;;18.18;85.30;101191.01;5235376;55;1137063;-65
2022/08/06 06:01:05;;;;;;;2.83;1.17;;;;;;;18.17;85.51;101199.54;5161994;56;1137342;-64
2022/08/06 06:06:12;;;;;;;1.67;1.30;;;;;;;18.11;85.70;101216.69;5162064;56;1135150;-64
2022/08/06 06:11:20;;;;;;;2.90;1.78;;;;;;;18.02;85.98;101217.60;5180909;56;1138961;-66
2022/08/06 06:16:37;;;;;;;6.03;2.40;;;;;;;18.02;86.32;101217.60;5079768;57;1139045;-64
2022/08/06 06:22:12;;;;;;;5.17;2.77;;;;;;;18.10;86.30;101227.05;5161755;56;1139173;-65
2022/08/06 06:27:22;;;;;;;5.67;4.42;;;;;;;18.22;85.71;101228.02;5240497;55;1138970;-67
2022/08/06 06:32:41;;;;;;;9.53;6.12;;;;;;;18.15;85.03;101239.00;5163479;56;1139053;-67
2022/08/06 06:38:06;;;;;;;10.08;7.40;;;;;;;18.04;84.90;101250.39;5244106;56;1138714;-67
2022/08/06 06:43:25;;;;;;;13.35;10.88;;;;;;;17.99;85.08;101265.58;5316671;55;1141023;-65
2022/08/06 06:48:54;;;;;;;15.00;9.73;;;;;;;17.91;85.60;101269.48;5316348;55;1143370;-65
2022/08/06 06:54:00;;;;;;;11.40;9.70;;;;;;;17.92;86.25;101267.15;5316415;55;1141378;-65
2022/08/06 06:59:23;;;;;;;14.53;11.65;;;;;;;17.94;85.62;101274.54;5246056;55;1141327;-63
2022/08/06 07:04:29;;;;;;;13.90;11.05;;;;;;;17.95;85.89;101274.05;5227508;56;1143216;-64
2022/08/06 07:09:36;;;;;;;18.77;11.43;;;;;;;18.02;85.85;101281.84;5227637;56;1143381;-69
2022/08/06 07:14:44;;;;;;;13.65;10.53;;;;;;;18.12;85.72;101298.69;5227675;56;1143241;-67
2022/08/06 07:19:52;;;;;;;13.48;9.30;;;;;;;18.26;85.51;101295.02;5241780;55;1143417;-65
2022/08/06 07:25:01;;;;;;;12.37;8.73;;;;;;;18.23;85.38;101296.64;5280832;55;1139147;-66
2022/08/06 07:30:09;;;;;;;15.08;9.58;;;;;;;18.18;85.88;101306.14;5258425;55;1138992;-67
2022/08/06 07:35:19;;;;;;;15.08;10.40;;;;;;;18.19;85.83;101310.47;5241216;55;1139249;-67
2022/08/06 07:40:42;;;;;;;11.35;8.00;;;;;;;18.34;85.94;101312.15;5154366;56;1141018;-63
2022/08/06 07:45:50;;;;;;;14.93;9.50;;;;;;;18.45;84.68;101323.52;5233063;55;1139018;-67
2022/08/06 07:50:58;;;;;;;11.03;8.30;;;;;;;18.61;85.02;101320.22;5189389;56;1139019;-65
2022/08/06 07:56:07;;;;;;;10.95;7.72;;;;;;;18.69;83.96;101311.40;5227651;56;1139046;-66
2022/08/06 08:01:14;;;;;;;11.73;7.95;;;;;;;18.85;83.03;101328.98;5226818;55;1139227;-64
2022/08/06 08:06:31;;;;;;;7.22;6.40;;;;;;;18.78;82.61;101339.48;5306622;55;1139242;-64
2022/08/06 08:11:33;;;;;;;8.95;7.75;;;;;;;18.89;83.03;101342.43;5315372;55;1137117;-67
2022/08/06 08:16:43;;;;;;;10.85;6.50;;;;;;;19.04;81.04;101354.30;5290447;55;1134979;-68
2022/08/06 08:21:50;;;;;;;10.63;6.67;;;;;;;19.26;81.08;101360.52;5263357;55;1141063;-68
2022/08/06 08:26:57;;;;;;;6.73;5.83;;;;;;;19.33;79.53;101372.33;5262067;55;1141155;-66
2022/08/06 08:32:03;;;;;;;6.97;6.23;;;;;;;19.33;77.58;101371.48;5275339;55;1139026;-67
2022/08/06 08:37:09;;;;;;;5.55;4.45;;;;;;;19.39;79.45;101372.72;5226279;55;1138994;-66
2022/08/06 08:42:23;;;;;;;7.33;5.75;;;;;;;19.55;77.96;101375.56;5267360;55;1139072;-68
2022/08/06 08:47:31;;;;;;;5.75;4.67;;;;;;;19.61;78.41;101389.67;5305382;55;1139028;-64
2022/08/06 08:52:40;;;;;;;4.33;3.52;;;;;;;19.88;76.41;101388.19;5289564;55;1138985;-68
2022/08/06 08:57:46;;;;;;;4.87;2.60;;;;;;;20.04;76.12;101382.07;5251072;56;1139071;-67
2022/08/06 09:02:53;;;;;;;4.40;2.35;;;;;;;20.15;71.85;101389.87;5287208;55;1138884;-66
2022/08/06 09:08:00;;;;;;;2.30;2.10;;;;;;;20.13;73.00;101401.27;5390567;55;1139601;-66
2022/08/06 09:13:06;;;;;;;4.58;2.50;;;;;;;20.12;72.43;101398.74;5234121;56;1139049;-64
2022/08/06 09:18:12;;;;;;;5.15;2.05;;;;;;;20.16;73.16;101408.17;5249913;56;1138973;-66
2022/08/06 09:23:19;;;;;;;5.67;1.60;;;;;;;20.21;71.94;101412.55;5211294;55;1139431;-64
2022/08/06 09:28:40;;;;;;;5.20;1.40;;;;;;;20.37;70.71;101415.34;5249182;56;1138989;-66
2022/08/06 09:33:59;;;;;;;8.10;1.70;;;;;;;20.45;70.39;101414.06;5365900;54;1139047;-66
2022/08/06 09:39:10;;;;;;;7.78;2.55;;;;;;;20.59;70.97;101421.51;5201647;56;1139041;-68
2022/08/06 09:44:16;;;;;;;3.27;1.70;;;;;;;20.97;68.87;101422.78;5361672;54;1138997;-67
2022/08/06 09:49:23;;;;;;;7.72;1.35;;;;;;;21.42;69.25;101413.46;5248209;56;1139036;-66
2022/08/06 09:54:33;;;;;;;2.12;1.32;;;;;;;21.71;67.48;101413.79;5381015;54;1139088;-67
2022/08/06 09:59:49;;;;;;;0.95;0.95;;;;;;;21.84;66.10;101409.76;5293367;55;1139207;-67
2022/08/06 10:04:55;;;;;;;3.90;1.60;;;;;;;21.89;65.97;101402.83;5282055;55;1139001;-63
2022/08/06 10:10:00;;;;;;;3.40;1.27;;;;;;;22.06;66.14;101395.08;5260701;55;1139052;-66
2022/08/06 10:15:06;;;;;;;3.20;1.15;;;;;;;22.34;65.40;101406.78;5273501;55;1139120;-63
2022/08/06 10:20:15;;;;;;;2.42;1.05;;;;;;;22.44;63.50;101399.34;5280069;55;1139065;-63
2022/08/06 10:25:23;;;;;;;6.05;1.50;;;;;;;22.41;62.38;101407.78;5329846;55;1138746;-66
2022/08/06 10:30:31;;;;;;;2.27;1.10;;;;;;;22.11;61.52;101413.44;5355704;54;1139046;-65
2022/08/06 10:35:38;;;;;;;2.90;1.87;;;;;;;21.79;61.49;101426.42;5164659;56;1137096;-66
2022/08/06 10:40:45;;;;;;;4.22;1.30;;;;;;;21.63;62.21;101424.58;5331253;55;1136940;-63
2022/08/06 10:45:52;;;;;;;3.90;1.12;;;;;;;21.52;62.45;101428.96;5250879;56;1136880;-74
2022/08/06 10:50:58;;;;;;;2.30;0.82;;;;;;;21.38;61.88;101434.52;5250808;56;1137189;-65
2022/08/06 10:56:07;;;;;;;0.45;0.40;;;;;;;21.33;61.03;101431.47;5330992;55;1136962;-63
2022/08/06 11:01:45;;;;;;;3.52;0.72;;;;;;;21.30;60.97;101429.61;5211327;56;1136970;-65
2022/08/06 11:07:14;;;;;;;0.40;0.40;;;;;;;21.55;57.77;101427.25;5349919;54;1136943;-64
2022/08/06 11:12:51;;;;;;;1.44;0.70;;;;;;;21.94;58.26;101433.30;5262903;56;1139604;-65
2022/08/06 11:18:07;;;;;;;5.67;1.10;;;;;;;22.59;60.31;101425.06;5330584;55;1138958;-64
2022/08/06 11:23:20;;;;;;;8.25;0.70;;;;;;;22.77;54.49;101425.16;5296669;55;1139126;-64
2022/08/06 11:28:39;;;;;;;5.08;0.95;;;;;;;22.64;52.96;101424.01;5338547;55;1138970;-65
2022/08/06 11:33:52;;;;;;;0.72;0.30;;;;;;;22.77;51.80;101421.11;5339962;54;1139220;-65
2022/08/06 11:39:00;;;;;;;0.30;0.30;;;;;;;22.93;50.89;101427.43;5330744;55;1139205;-63
2022/08/06 11:44:07;;;;;;;4.28;0.68;;;;;;;23.16;46.58;101429.66;5307610;55;1138464;-63
2022/08/06 11:49:23;;;;;;;0.72;0.20;;;;;;;23.23;47.48;101421.67;5263968;55;1139018;-63
2022/08/06 11:54:33;;;;;;;1.30;0.42;;;;;;;23.46;45.05;101421.17;5265028;55;1139046;-66
2022/08/06 11:59:47;;;;;;;6.55;0.47;;;;;;;23.61;45.50;101411.80;5196314;56;1139104;-64
2022/08/06 12:04:54;;;;;;;1.20;0.72;;;;;;;23.55;45.44;101420.10;5257662;55;1139047;-63
2022/08/06 12:10:09;;;;;;;1.72;0.60;;;;;;;23.66;47.52;101422.39;5232194;55;1138995;-63
2022/08/06 12:15:19;;;;;;;0.20;0.20;;;;;;;24.07;46.58;101418.77;5268145;55;1139155;-64
2022/08/06 12:20:35;;;;;;;2.83;0.40;;;;;;;24.16;44.68;101414.10;5321335;55;1139273;-63
2022/08/06 12:25:44;;;;;;;0.30;0.30;;;;;;;24.46;40.22;101412.27;5311368;55;1139122;-63
2022/08/06 12:30:54;;;;;;;0.85;0.33;;;;;;;24.38;43.27;101417.78;5291916;55;1139202;-64
2022/08/06 12:36:02;;;;;;;0.45;0.25;;;;;;;24.12;42.03;101424.98;5248396;55;1137015;-65
2022/08/06 12:41:09;;;;;;;1.17;0.50;;;;;;;24.04;41.08;101417.78;5255566;55;1136942;-64
2022/08/06 12:46:15;;;;;;;1.30;0.90;;;;;;;24.34;43.46;101421.88;5337223;54;1137312;-66
2022/08/06 12:51:21;;;;;;;0.62;0.30;;;;;;;24.61;42.20;101419.84;5233295;56;1136864;-66
2022/08/06 12:56:33;;;;;;;1.37;0.53;;;;;;;24.75;41.23;101410.05;5322249;54;1137205;-66
2022/08/06 13:01:38;;;;;;;0.60;0.57;;;;;;;25.08;40.91;101414.48;5196351;56;1136915;-65
2022/08/06 13:06:45;;;;;;;1.70;0.60;;;;;;;25.07;39.59;101408.75;5355474;54;1137271;-64
2022/08/06 13:11:51;;;;;;;0.53;0.40;;;;;;;24.79;40.88;101408.11;5217351;56;1136939;-64
2022/08/06 13:16:56;;;;;;;5.20;0.80;;;;;;;24.92;41.25;101411.47;5423516;54;1136968;-66
2022/08/06 13:22:03;;;;;;;0.50;0.50;;;;;;;25.28;39.76;101402.00;5247901;56;1137199;-64
2022/08/06 13:27:09;;;;;;;4.72;0.98;;;;;;;25.33;38.88;101399.56;5348020;54;1137268;-66
2022/08/06 13:32:14;;;;;;;5.03;2.35;;;;;;;25.21;36.22;101402.44;5347324;54;1136831;-65
2022/08/06 13:37:47;;;;;;;2.30;0.30;;;;;;;24.88;37.43;101406.14;5208028;56;1136945;-65
2022/08/06 13:42:54;;;;;;;;;;;;;;;24.83;36.64;101401.80;5295304;55;1139068;-65
2022/08/06 13:48:10;;;;;;;0.57;0.37;;;;;;;24.83;36.89;101404.00;5343588;55;976308;-65
2022/08/06 13:53:16;;;;;;;3.27;0.33;;;;;;;24.90;36.71;101401.38;5340869;55;1136941;-66
2022/08/06 13:58:22;;;;;;;1.42;0.57;;;;;;;24.75;36.81;101416.81;5340782;55;1139014;-66
2022/08/06 14:03:28;;;;;;;0.80;0.53;;;;;;;24.73;37.60;101408.88;5340829;55;1138989;-65
2022/08/06 14:08:34;;;;;;;6.08;0.47;;;;;;;24.99;36.74;101415.66;5340615;55;1138951;-66
2022/08/06 14:13:39;;;;;;;2.87;0.82;;;;;;;25.13;36.60;101403.93;5273644;55;1139027;-66
2022/08/06 14:18:45;;;;;;;0.42;0.33;;;;;;;25.32;35.17;101405.16;5423684;54;1139118;-65
2022/08/06 14:23:51;;;;;;;3.40;0.60;;;;;;;25.49;35.04;101401.16;5247928;55;1139045;-64
2022/08/06 14:28:58;;;;;;;0.42;0.20;;;;;;;25.59;34.79;101411.97;5355478;54;1139012;-65
2022/08/06 14:34:04;;;;;;;6.03;0.50;;;;;;;25.71;34.17;101416.87;5269983;55;1138980;-65
2022/08/06 14:39:13;;;;;;;0.25;0.23;;;;;;;25.76;35.41;101422.05;5305698;55;1139037;-65
2022/08/06 14:49:43;;;;;;;0.88;0.53;;;;;;;26.09;35.85;101413.31;5335809;54;1139063;-65
2022/08/06 14:54:49;;;;;;;18.67;2.42;;;;;;;26.13;34.26;101420.83;5262061;55;1139033;-66
2022/08/06 14:59:55;;;;;;;5.87;1.98;;;;;;;25.67;34.65;101429.98;5390138;55;1141374;-65
2022/08/06 15:05:00;;;;;;;4.95;1.10;;;;;;;25.40;35.52;101419.40;5241653;56;1139068;-64
2022/08/06 15:10:07;;;;;;;6.78;0.85;;;;;;;25.46;34.54;101420.50;5353980;54;1138415;-64
2022/08/06 15:15:13;;;;;;;0.82;0.60;;;;;;;25.38;35.82;101424.68;5256770;55;1138994;-65
2022/08/06 15:20:22;;;;;;;0.28;0.28;;;;;;;25.41;35.44;101427.01;5330773;55;1138912;-65
2022/08/06 15:25:27;;;;;;;1.50;0.40;;;;;;;25.42;35.00;101428.69;5419954;54;1138990;-64
2022/08/06 15:30:33;;;;;;;1.70;0.40;;;;;;;25.34;34.25;101426.13;5245154;56;1139029;-65
2022/08/06 15:35:40;;;;;;;1.47;0.37;;;;;;;25.02;35.13;101436.41;5289242;55;1139033;-65
2022/08/06 15:40:46;;;;;;;4.72;0.45;;;;;;;24.78;35.89;101428.07;5319505;55;1139144;-65
2022/08/06 15:45:52;;;;;;;1.65;0.30;;;;;;;24.75;36.01;101423.03;5364793;54;1139216;-64
2022/08/06 15:50:59;;;;;;;0.55;0.30;;;;;;;24.70;35.38;101422.78;5250741;56;1139119;-64
2022/08/06 15:56:05;;;;;;;0.30;0.30;;;;;;;24.64;35.55;101425.39;5424151;54;1138948;-64
2022/08/06 16:01:11;;;;;;;36.15;3.58;;;;;;;24.78;35.61;101420.47;5341444;55;1139224;-64
2022/08/06 16:06:17;;;;;;;5.08;0.62;;;;;;;25.03;36.18;101416.95;5329316;55;1141113;-65
2022/08/06 16:11:22;;;;;;;2.87;0.60;;;;;;;25.16;33.93;101430.11;5287018;55;1139071;-64
2022/08/06 16:16:31;;;;;;;2.52;0.35;;;;;;;25.05;34.65;101428.43;5341321;55;1139032;-64
2022/08/06 16:21:35;;;;;;;1.00;0.40;;;;;;;24.89;34.26;101434.88;5341388;55;1138971;-64
2022/08/06 16:26:41;;;;;;;1.20;0.68;;;;;;;24.45;33.04;101440.33;5341056;55;1139225;-64
2022/08/06 16:31:51;;;;;;;0.85;0.40;;;;;;;24.07;35.38;101443.61;5341348;55;1136917;-64
2022/08/06 16:37:01;;;;;;;3.92;0.30;;;;;;;23.82;34.62;101443.02;5341199;55;1136918;-65
2022/08/06 16:42:08;;;;;;;0.85;0.60;;;;;;;23.92;35.82;101434.64;5341020;55;1137062;-64
2022/08/06 16:47:14;;;;;;;3.65;0.70;;;;;;;24.11;36.02;101447.12;5317969;55;1137032;-65
2022/08/06 16:52:20;;;;;;;1.25;0.70;;;;;;;24.14;36.58;101448.59;5281013;55;1136946;-64
2022/08/06 16:57:26;;;;;;;4.03;0.40;;;;;;;24.09;36.19;101453.22;5316385;55;1136943;-66
2022/08/06 17:02:37;;;;;;;4.50;0.42;;;;;;;24.02;36.12;101448.72;5317243;55;1137127;-65
2022/08/06 17:07:46;;;;;;;1.07;0.50;;;;;;;24.03;36.44;101458.50;5313782;55;1136982;-65
2022/08/06 17:12:52;;;;;;;5.62;0.60;;;;;;;23.91;36.00;101465.38;5266638;55;1137031;-65
2022/08/06 17:17:58;;;;;;;0.50;0.50;;;;;;;23.85;36.59;101458.84;5239050;55;1136874;-66
2022/08/06 17:23:04;;;;;;;3.02;0.40;;;;;;;23.85;36.48;101471.00;5271606;55;1136983;-64
2022/08/06 17:28:10;;;;;;;3.17;0.85;;;;;;;23.71;36.19;101471.28;5259062;55;1137009;-65
2022/08/06 17:33:16;;;;;;;15.13;12.80;;;;;;;23.47;36.80;101468.25;5312491;55;1136832;-64
2022/08/06 17:38:22;;;;;;;10.63;2.08;;;;;;;23.37;35.99;101465.47;5172354;56;1141131;-65
2022/08/06 17:43:29;;;;;;;16.05;6.53;;;;;;;23.30;36.75;101469.38;5140672;57;1137018;-65
2022/08/06 17:48:36;;;;;;;10.20;3.85;;;;;;;23.27;36.27;101476.98;5150501;57;1136904;-64
2022/08/06 17:53:43;;;;;;;13.62;12.12;;;;;;;23.08;36.42;101479.62;5174553;56;1141512;-64
2022/08/06 17:58:51;;;;;;;11.70;8.27;;;;;;;22.85;36.92;101484.98;5299999;55;1143301;-64
2022/08/06 18:04:00;;;;;;;5.17;3.70;;;;;;;22.72;37.26;101490.06;5199551;56;1141180;-64
2022/08/06 18:09:06;;;;;;;3.60;2.93;;;;;;;22.77;37.82;101497.97;5423975;54;1139063;-64
2022/08/06 18:14:12;;;;;;;7.28;2.77;;;;;;;22.77;38.25;101507.42;5215291;56;1139091;-66
2022/08/06 18:19:18;;;;;;;24.47;15.83;;;;;;;22.78;38.58;101512.30;5250893;56;1139558;-64
2022/08/06 18:24:24;;;;;;;14.60;7.08;;;;;;;22.77;38.94;101518.20;5251023;56;1143123;-64
2022/08/06 18:29:30;;;;;;;8.93;4.10;;;;;;;22.79;38.99;101524.27;5387975;54;1141575;-64
2022/08/06 18:34:37;;;;;;;16.48;2.50;;;;;;;22.82;39.44;101527.64;5320348;55;1139096;-65
2022/08/06 18:39:43;;;;;;;47.25;23.07;;;;;;;22.79;39.33;101537.76;5249721;56;1141187;-64
2022/08/06 18:44:48;;;;;;;18.87;9.33;;;;;;;22.75;39.77;101541.81;5231000;56;1143205;-66
2022/08/06 18:50:00;;;;;;;10.38;3.55;;;;;;;22.75;39.96;101547.20;5287291;55;1140980;-65
2022/08/06 18:55:02;;;;;;;14.68;3.42;;;;;;;22.62;40.18;101549.58;5315484;55;1141161;-65
2022/08/06 19:00:10;;;;;;;6.90;2.58;;;;;;;22.49;40.64;101561.41;5316685;55;1141312;-63
2022/08/06 19:05:16;;;;;;;8.00;5.28;;;;;;;22.41;40.96;101561.43;5257025;55;1139168;-63
2022/08/06 19:10:23;;;;;;;10.10;7.17;;;;;;;22.33;41.07;101567.66;5227706;56;1139300;-66
2022/08/06 19:15:30;;;;;;;11.97;5.22;;;;;;;22.25;41.37;101573.58;5227553;56;1141295;-64
2022/08/06 19:20:36;;;;;;;10.20;4.12;;;;;;;22.16;41.56;101578.11;5227745;56;1141188;-64
2022/08/06 19:25:42;;;;;;;6.30;2.20;;;;;;;21.96;41.95;101578.09;5227663;56;1141341;-64
2022/08/06 19:30:48;;;;;;;6.92;1.42;;;;;;;21.78;42.16;101581.43;5227644;56;1138921;-65
2022/08/06 19:35:54;;;;;;;6.42;1.47;;;;;;;21.67;42.68;101592.02;5227674;56;1139194;-64
2022/08/06 19:41:00;;;;;;;6.45;1.62;;;;;;;21.53;43.01;101589.47;5227826;56;1139607;-65
2022/08/06 19:46:06;;;;;;;13.80;2.55;;;;;;;21.49;43.77;101590.80;5280042;55;1139061;-64
2022/08/06 19:51:12;;;;;;;12.40;4.75;;;;;;;21.39;43.82;101598.98;5336611;55;1141254;-65
2022/08/06 19:56:18;;;;;;;7.83;4.55;;;;;;;21.38;44.22;101610.79;5342910;55;1141219;-65
2022/08/06 20:01:23;;;;;;;5.22;2.92;;;;;;;21.38;44.75;101606.75;5317865;55;1139019;-63
2022/08/06 20:06:29;;;;;;;5.80;2.75;;;;;;;21.32;45.06;101605.20;5217550;56;1139101;-65
2022/08/06 20:11:35;;;;;;;8.80;2.30;;;;;;;21.26;45.65;101609.37;5292544;55;1139311;-65
2022/08/06 20:16:41;;;;;;;10.53;3.83;;;;;;;21.12;45.08;101615.83;5342820;55;1139031;-64
2022/08/06 20:21:47;;;;;;;17.40;4.17;;;;;;;20.95;45.29;101614.41;5342906;55;1141099;-65
2022/08/06 20:26:54;;;;;;;7.28;3.08;;;;;;;20.63;45.02;101612.36;5342860;55;1141090;-64
2022/08/06 20:32:00;;;;;;;8.25;3.33;;;;;;;20.27;45.48;101616.09;5343048;55;1138956;-64
2022/08/06 20:37:05;;;;;;;8.88;4.42;;;;;;;20.15;46.40;101618.69;5342848;55;1139439;-65
2022/08/06 20:42:11;;;;;;;9.33;4.22;;;;;;;20.18;47.23;101623.23;5343355;55;1139025;-65
2022/08/06 20:47:17;;;;;;;20.37;4.83;;;;;;;20.15;48.10;101626.74;5343520;55;1139547;-64
2022/08/06 20:52:24;;;;;;;14.58;6.03;;;;;;;20.11;48.14;101628.89;5343402;55;1141011;-65
2022/08/06 20:57:34;;;;;;;10.32;6.55;;;;;;;20.08;48.30;101635.05;5343515;55;1141322;-63
2022/08/06 21:02:36;;;;;;;15.65;8.95;;;;;;;20.00;48.66;101643.40;5341755;55;1141097;-64
2022/08/06 21:07:44;;;;;;;18.85;7.67;;;;;;;19.78;49.01;101643.82;5332576;55;1139081;-63
2022/08/06 21:12:51;;;;;;;8.68;4.55;;;;;;;19.43;49.36;101645.89;5278023;55;1139495;-64
2022/08/06 21:17:57;;;;;;;12.07;5.03;;;;;;;18.97;49.53;101658.36;5253693;56;1137285;-63
2022/08/06 21:23:03;;;;;;;10.45;4.85;;;;;;;18.69;50.29;101654.41;5297173;55;1139083;-65
2022/08/06 21:28:10;;;;;;;14.70;4.12;;;;;;;18.51;51.16;101662.30;5342176;55;1139144;-65
2022/08/06 21:33:16;;;;;;;10.40;3.65;;;;;;;18.41;51.64;101666.33;5332637;55;1139022;-65
2022/08/06 21:38:22;;;;;;;9.25;4.60;;;;;;;18.13;51.62;101667.17;5338425;55;1139034;-63
2022/08/06 21:43:30;;;;;;;10.28;4.55;;;;;;;17.97;52.30;101674.91;5343157;55;1136967;-63
2022/08/06 21:48:36;;;;;;;14.70;5.17;;;;;;;17.90;53.07;101674.60;5343136;55;1139236;-65
2022/08/06 21:53:42;;;;;;;14.60;5.42;;;;;;;18.05;53.88;101677.23;5343298;55;1139291;-65
2022/08/06 21:58:49;;;;;;;9.20;4.50;;;;;;;17.96;53.80;101675.41;5343242;55;1139177;-65
2022/08/06 22:03:58;;;;;;;14.45;7.10;;;;;;;18.00;54.28;101681.33;5339066;55;1136876;-64
2022/08/06 22:09:04;;;;;;;17.07;7.12;;;;;;;18.21;54.45;101682.03;5332466;55;1139013;-64
2022/08/06 22:14:10;;;;;;;28.05;12.33;;;;;;;18.36;54.24;101673.94;5257007;55;1139012;-65
2022/08/06 22:19:17;;;;;;;40.35;16.20;;;;;;;18.38;53.99;101677.32;5253426;56;1141405;-64
2022/08/06 22:24:23;;;;;;;33.78;15.50;;;;;;;18.36;53.82;101675.77;5321209;55;1141015;-64
2022/08/06 22:30:31;;;;;;;23.12;11.60;;;;;;;18.32;53.95;101679.73;5339041;55;1139611;-65
2022/08/06 22:34:37;;;;;;;27.45;10.48;;;;;;;18.20;53.58;101689.22;5338158;55;1169683;-65
2022/08/06 22:39:43;;;;;;;19.35;9.78;;;;;;;17.86;53.77;101691.94;5343300;55;1143140;-63
2022/08/06 22:44:49;;;;;;;24.40;10.17;;;;;;;17.60;54.40;101696.89;5343171;55;1141123;-65
2022/08/06 22:49:55;;;;;;;156.23;14.33;;;;;;;17.59;55.18;101694.70;5343032;55;1143259;-65
2022/08/06 22:55:00;;;;;;;17.83;7.73;;;;;;;17.68;55.75;101701.61;5250755;55;1145249;-65
2022/08/06 23:00:11;;;;;;;23.65;7.65;;;;;;;17.62;55.39;101690.91;5423708;54;1141412;-63
2022/08/06 23:05:17;;;;;;;22.30;7.92;;;;;;;17.33;55.53;101694.81;5202225;55;1141053;-64
2022/08/06 23:10:23;;;;;;;14.73;7.78;;;;;;;17.07;56.26;101690.41;5365937;54;1141322;-63
2022/08/06 23:15:29;;;;;;;30.97;11.83;;;;;;;16.97;56.76;101690.82;5304204;55;1141083;-64
2022/08/06 23:20:34;;;;;;;17.37;8.38;;;;;;;17.00;57.32;101688.38;5296740;55;1143187;-65